createdAt,value
2018-12-30T00:00:23.723Z,16.23
2018-12-30T00:02:54.703Z,12.80
2018-12-30T00:05:25.992Z,13.93
2018-12-30T00:07:57.542Z,15.40
2018-12-30T00:10:28.298Z,15.13
2018-12-30T00:12:58.549Z,15.00
2018-12-30T00:15:29.490Z,17.40
2018-12-30T00:17:59.690Z,15.60
2018-12-30T00:20:30.111Z,18.50
2018-12-30T00:23:00.365Z,15.77
2018-12-30T00:25:31.108Z,16.37
2018-12-30T00:28:01.492Z,16.30
2018-12-30T00:30:32.194Z,16.43
2018-12-30T00:33:02.422Z,15.13
2018-12-30T00:35:33.531Z,16.43
2018-12-30T00:38:03.949Z,16.23
2018-12-30T00:40:34.520Z,16.23
2018-12-30T00:43:04.931Z,17.23
2018-12-30T00:45:35.792Z,15.93
2018-12-30T00:48:06.179Z,14.80
2018-12-30T00:50:37.306Z,15.00
2018-12-30T00:53:07.684Z,14.97
2018-12-30T00:55:38.232Z,14.83
2018-12-30T00:58:08.476Z,16.67
2018-12-30T01:00:39.034Z,14.53
2018-12-30T01:03:09.667Z,15.27
2018-12-30T01:05:40.236Z,15.60
2018-12-30T01:08:10.619Z,15.07
2018-12-30T01:10:41.787Z,14.67
2018-12-30T01:13:12.030Z,15.03
2018-12-30T01:15:42.648Z,14.73
2018-12-30T01:18:13.086Z,15.37
2018-12-30T01:20:43.972Z,15.27
2018-12-30T01:23:14.113Z,15.60
2018-12-30T01:25:44.687Z,15.20
2018-12-30T01:28:15.124Z,14.87
2018-12-30T01:30:45.625Z,15.07
2018-12-30T01:33:16.015Z,14.50
2018-12-30T01:35:46.203Z,15.57
2018-12-30T01:38:16.375Z,17.20
2018-12-30T01:40:47.228Z,15.97
2018-12-30T01:43:18.038Z,16.70
2018-12-30T01:45:48.651Z,16.17
2018-12-30T01:48:19.031Z,17.70
2018-12-30T01:50:50.659Z,17.13
2018-12-30T01:53:20.889Z,17.30
2018-12-30T01:55:51.469Z,17.30
2018-12-30T01:58:21.695Z,18.10
2018-12-30T02:00:52.646Z,17.47
2018-12-30T02:03:23.182Z,18.10
2018-12-30T02:05:53.368Z,16.63
2018-12-30T02:08:24.933Z,15.23
2018-12-30T02:10:55.551Z,16.07
2018-12-30T02:13:25.730Z,14.77
2018-12-30T02:15:56.087Z,15.50
2018-12-30T02:18:26.175Z,14.93
2018-12-30T02:20:57.066Z,14.70
2018-12-30T02:23:27.222Z,13.87
2018-12-30T02:25:57.962Z,15.30
2018-12-30T02:28:28.076Z,12.97
2018-12-30T02:30:59.111Z,14.37
2018-12-30T02:33:29.213Z,13.50
2018-12-30T02:35:59.851Z,14.67
2018-12-30T02:38:30.076Z,13.93
2018-12-30T02:41:00.709Z,13.60
2018-12-30T02:43:31.183Z,14.93
2018-12-30T02:46:01.721Z,15.33
2018-12-30T02:48:32.290Z,14.83
2018-12-30T02:51:03.410Z,14.03
2018-12-30T02:53:33.601Z,14.67
2018-12-30T02:56:04.236Z,14.37
2018-12-30T02:58:35.226Z,14.03
2018-12-30T03:01:05.344Z,14.87
2018-12-30T03:03:36.154Z,13.53
2018-12-30T03:06:06.737Z,12.73
2018-12-30T03:08:38.025Z,13.60
2018-12-30T03:11:08.576Z,12.50
2018-12-30T03:13:39.132Z,13.20
2018-12-30T03:16:09.185Z,13.40
2018-12-30T03:18:41.948Z,13.17
2018-12-30T03:21:12.584Z,12.97
2018-12-30T03:23:42.804Z,13.27
2018-12-30T03:26:13.434Z,13.53
2018-12-30T03:28:44.002Z,13.90
2018-12-30T03:31:14.249Z,13.40
2018-12-30T03:33:45.061Z,13.23
2018-12-30T03:36:15.275Z,12.30
2018-12-30T03:38:45.452Z,12.70
2018-12-30T03:41:16.052Z,12.67
2018-12-30T03:43:46.767Z,12.53
2018-12-30T03:46:18.077Z,11.60
2018-12-30T03:48:48.471Z,12.00
2018-12-30T03:51:18.973Z,11.93
2018-12-30T03:53:49.171Z,11.43
2018-12-30T03:56:21.355Z,11.33
2018-12-30T03:58:55.852Z,11.37
2018-12-30T04:01:26.265Z,10.87
2018-12-30T04:03:56.669Z,10.83
2018-12-30T04:06:26.885Z,9.77
2018-12-30T04:08:57.021Z,10.60
2018-12-30T04:11:27.192Z,10.87
2018-12-30T04:13:59.275Z,10.23
2018-12-30T04:16:29.811Z,10.57
2018-12-30T04:18:59.984Z,10.97
2018-12-30T04:21:30.423Z,10.57
2018-12-30T04:24:00.491Z,10.43
2018-12-30T04:26:30.742Z,10.90
2018-12-30T04:29:03.591Z,10.93
2018-12-30T04:31:33.738Z,10.33
2018-12-30T04:34:04.210Z,11.47
2018-12-30T04:36:34.343Z,11.30
2018-12-30T04:39:06.062Z,10.73
2018-12-30T04:41:36.683Z,11.40
2018-12-30T04:44:07.380Z,11.80
2018-12-30T04:46:37.015Z,12.00
2018-12-30T04:49:07.241Z,11.57
2018-12-30T04:51:38.148Z,11.83
2018-12-30T04:54:08.456Z,11.80
2018-12-30T04:56:38.517Z,12.17
2018-12-30T04:59:08.922Z,12.07
2018-12-30T05:01:39.467Z,12.30
2018-12-30T05:04:09.633Z,11.83
2018-12-30T05:06:41.977Z,13.90
2018-12-30T05:09:12.072Z,12.40
2018-12-30T05:11:42.245Z,11.80
2018-12-30T05:14:12.467Z,11.87
2018-12-30T05:16:42.605Z,12.67
2018-12-30T05:19:13.347Z,13.00
2018-12-30T05:21:43.497Z,12.90
2018-12-30T05:24:13.953Z,12.40
2018-12-30T05:26:44.085Z,14.33
2018-12-30T05:29:14.200Z,13.93
2018-12-30T05:31:44.256Z,13.93
2018-12-30T05:34:14.550Z,13.57
2018-12-30T05:36:44.971Z,13.30
2018-12-30T05:39:15.549Z,14.10
2018-12-30T05:41:45.663Z,13.70
2018-12-30T05:44:16.499Z,13.10
2018-12-30T05:46:48.144Z,13.67
2018-12-30T05:49:18.551Z,13.77
2018-12-30T05:51:49.081Z,13.80
2018-12-30T05:54:19.255Z,11.50
2018-12-30T05:56:49.724Z,12.40
2018-12-30T05:59:20.478Z,13.27
2018-12-30T06:01:50.607Z,12.57
2018-12-30T06:04:20.124Z,12.57
2018-12-30T06:06:50.236Z,13.07
2018-12-30T06:09:20.426Z,12.40
2018-12-30T06:11:52.834Z,11.87
2018-12-30T06:14:22.996Z,11.57
2018-12-30T06:16:53.575Z,12.10
2018-12-30T06:19:23.836Z,11.10
2018-12-30T06:21:54.267Z,12.43
2018-12-30T06:24:24.441Z,11.60
2018-12-30T06:26:55.006Z,13.00
2018-12-30T06:29:25.636Z,11.97
2018-12-30T06:31:55.790Z,11.77
2018-12-30T06:34:26.265Z,11.50
2018-12-30T06:36:56.909Z,12.53
2018-12-30T06:39:27.020Z,12.50
2018-12-30T06:41:57.110Z,12.57
2018-12-30T06:44:27.595Z,12.03
2018-12-30T06:46:57.828Z,12.00
2018-12-30T06:49:29.618Z,12.00
2018-12-30T06:52:00.311Z,11.13
2018-12-30T06:54:30.369Z,12.43
2018-12-30T06:57:02.178Z,11.73
2018-12-30T06:59:32.728Z,12.87
2018-12-30T07:02:02.877Z,12.33
2018-12-30T07:04:33.423Z,12.87
2018-12-30T07:07:03.803Z,11.73
2018-12-30T07:09:37.649Z,12.70
2018-12-30T07:12:09.095Z,12.87
2018-12-30T07:14:39.566Z,12.50
2018-12-30T07:17:09.615Z,12.83
2018-12-30T07:19:40.424Z,12.10
2018-12-30T07:22:10.896Z,12.27
2018-12-30T07:24:41.056Z,11.07
2018-12-30T07:27:11.451Z,10.97
2018-12-30T07:29:42.008Z,12.53
2018-12-30T07:32:12.105Z,11.37
2018-12-30T07:34:43.150Z,13.40
2018-12-30T07:37:16.131Z,12.40
2018-12-30T07:39:46.363Z,12.50
2018-12-30T07:42:17.205Z,12.57
2018-12-30T07:44:47.660Z,11.57
2018-12-30T07:47:17.748Z,13.57
2018-12-30T07:49:48.488Z,12.47
2018-12-30T07:52:19.035Z,12.50
2018-12-30T07:54:49.204Z,11.37
2018-12-30T07:57:19.768Z,12.13
2018-12-30T07:59:50.448Z,12.97
2018-12-30T08:02:20.724Z,12.20
2018-12-30T08:04:51.274Z,13.80
2018-12-30T08:07:27.809Z,12.77
2018-12-30T08:09:58.172Z,12.67
2018-12-30T08:12:28.574Z,13.30
2018-12-30T08:14:58.895Z,13.63
2018-12-30T08:17:34.420Z,12.33
2018-12-30T08:20:05.381Z,13.17
2018-12-30T08:22:36.305Z,12.97
2018-12-30T08:25:06.441Z,12.23
2018-12-30T08:27:37.083Z,12.73
2018-12-30T08:30:08.208Z,12.53
2018-12-30T08:32:38.500Z,12.90
2018-12-30T08:35:08.756Z,13.47
2018-12-30T08:37:39.235Z,14.00
2018-12-30T08:40:09.376Z,13.67
2018-12-30T08:42:39.875Z,12.90
2018-12-30T08:45:10.670Z,13.10
2018-12-30T08:47:40.916Z,12.10
2018-12-30T08:50:11.113Z,13.27
2018-12-30T08:52:40.947Z,12.53
2018-12-30T08:55:10.935Z,13.20
2018-12-30T08:57:41.328Z,12.93
2018-12-30T09:00:11.714Z,12.67
2018-12-30T09:02:41.718Z,12.70
2018-12-30T09:05:11.835Z,12.60
2018-12-30T09:07:42.286Z,12.63
2018-12-30T09:10:12.454Z,12.33
2018-12-30T09:12:42.840Z,13.03
2018-12-30T09:15:13.590Z,13.97
2018-12-30T09:17:43.131Z,13.33
2018-12-30T09:20:13.676Z,12.57
2018-12-30T09:22:43.813Z,12.97
2018-12-30T09:25:15.167Z,14.17
2018-12-30T09:27:45.892Z,13.80
2018-12-30T09:30:16.443Z,12.60
2018-12-30T09:32:47.305Z,13.63
2018-12-30T09:35:19.784Z,14.53
2018-12-30T09:37:50.197Z,14.20
2018-12-30T09:40:20.414Z,13.73
2018-12-30T09:42:51.360Z,13.20
2018-12-30T09:45:21.803Z,13.43
2018-12-30T09:47:51.959Z,12.77
2018-12-30T09:50:23.083Z,12.83
2018-12-30T09:52:53.651Z,13.40
2018-12-30T09:55:23.799Z,12.80
2018-12-30T09:57:54.304Z,14.07
2018-12-30T10:00:25.144Z,13.40
2018-12-30T10:02:55.383Z,13.47
2018-12-30T10:05:25.924Z,13.67
2018-12-30T10:07:56.269Z,13.73
2018-12-30T10:10:26.375Z,13.97
2018-12-30T10:12:56.925Z,13.77
2018-12-30T10:15:27.329Z,12.63
2018-12-30T10:17:57.610Z,12.73
2018-12-30T10:20:28.547Z,13.63
2018-12-30T10:22:59.016Z,12.40
2018-12-30T10:25:28.591Z,13.93
2018-12-30T10:27:59.124Z,13.50
2018-12-30T10:30:29.652Z,12.77
2018-12-30T10:32:59.898Z,11.80
2018-12-30T10:35:30.392Z,12.37
2018-12-30T10:38:00.957Z,12.10
2018-12-30T10:40:31.079Z,12.17
2018-12-30T10:43:03.196Z,12.50
2018-12-30T10:45:33.919Z,12.90
2018-12-30T10:48:04.031Z,12.53
2018-12-30T10:50:35.266Z,11.90
2018-12-30T10:53:05.461Z,12.63
2018-12-30T10:55:35.604Z,13.00
2018-12-30T10:58:05.958Z,12.23
2018-12-30T11:00:36.379Z,12.13
2018-12-30T11:03:08.037Z,13.30
2018-12-30T11:05:38.848Z,13.03
2018-12-30T11:08:09.348Z,13.47
2018-12-30T11:10:39.466Z,13.67
2018-12-30T11:13:10.155Z,12.90
2018-12-30T11:15:40.602Z,12.57
2018-12-30T11:18:11.074Z,12.53
2018-12-30T11:20:41.593Z,12.30
2018-12-30T11:23:12.110Z,12.17
2018-12-30T11:25:42.371Z,12.90
2018-12-30T11:28:14.290Z,12.17
2018-12-30T11:30:44.950Z,11.70
2018-12-30T11:33:15.051Z,12.10
2018-12-30T11:35:45.534Z,10.10
2018-12-30T11:38:16.400Z,12.27
2018-12-30T11:40:47.152Z,12.00
2018-12-30T11:43:17.738Z,11.13
2018-12-30T11:45:47.907Z,11.57
2018-12-30T11:48:17.988Z,11.50
2018-12-30T11:50:48.268Z,12.03
2018-12-30T11:53:18.444Z,11.73
2018-12-30T11:55:49.399Z,12.93
2018-12-30T11:58:19.930Z,11.70
2018-12-30T12:00:50.396Z,12.10
2018-12-30T12:03:22.196Z,12.70
2018-12-30T12:05:53.987Z,12.20
2018-12-30T12:08:24.141Z,12.93
2018-12-30T12:10:54.358Z,12.50
2018-12-30T12:13:25.188Z,12.20
2018-12-30T12:15:55.458Z,12.27
2018-12-30T12:18:26.223Z,12.73
2018-12-30T12:20:56.431Z,12.10
2018-12-30T12:23:27.190Z,11.87
2018-12-30T12:25:57.458Z,11.97
2018-12-30T12:28:29.890Z,11.80
2018-12-30T12:31:00.161Z,12.17
2018-12-30T12:33:30.689Z,11.87
2018-12-30T12:36:01.312Z,11.37
2018-12-30T12:38:31.408Z,11.97
2018-12-30T12:41:01.551Z,11.47
2018-12-30T12:43:32.474Z,12.47
2018-12-30T12:46:02.891Z,11.93
2018-12-30T12:48:33.046Z,15.37
2018-12-30T12:51:03.411Z,11.00
2018-12-30T12:53:33.643Z,11.47
2018-12-30T12:56:03.895Z,11.87
2018-12-30T12:58:34.602Z,11.30
2018-12-30T13:01:04.150Z,11.17
2018-12-30T13:03:34.227Z,10.43
2018-12-30T13:06:04.742Z,10.67
2018-12-30T13:08:37.453Z,11.57
2018-12-30T13:11:07.044Z,11.13
2018-12-30T13:13:37.154Z,10.43
2018-12-30T13:16:07.416Z,10.80
2018-12-30T13:18:39.235Z,10.43
2018-12-30T13:21:09.606Z,11.87
2018-12-30T13:23:40.184Z,10.90
2018-12-30T13:26:10.824Z,10.70
2018-12-30T13:28:41.325Z,10.73
2018-12-30T13:31:11.678Z,10.33
2018-12-30T13:33:42.606Z,10.77
2018-12-30T13:36:13.472Z,11.10
2018-12-30T13:38:43.927Z,11.27
2018-12-30T13:41:14.067Z,10.13
2018-12-30T13:43:46.163Z,11.67
2018-12-30T13:46:16.349Z,12.10
2018-12-30T13:48:47.378Z,11.60
2018-12-30T13:51:17.839Z,10.47
2018-12-30T13:53:48.626Z,12.40
2018-12-30T13:56:19.104Z,11.77
2018-12-30T13:58:49.351Z,11.23
2018-12-30T14:01:19.524Z,12.20
2018-12-30T14:03:50.002Z,11.73
2018-12-30T14:06:20.242Z,12.23
2018-12-30T14:08:50.647Z,11.60
2018-12-30T14:11:20.788Z,11.73
2018-12-30T14:13:51.195Z,12.03
2018-12-30T14:16:21.397Z,12.20
2018-12-30T14:18:52.014Z,11.33
2018-12-30T14:21:22.469Z,11.80
2018-12-30T14:23:52.779Z,11.33
2018-12-30T14:26:23.410Z,10.67
2018-12-30T14:28:54.028Z,10.87
2018-12-30T14:31:24.314Z,10.87
2018-12-30T14:33:55.202Z,13.63
2018-12-30T14:36:25.470Z,12.40
2018-12-30T14:38:55.949Z,11.93
2018-12-30T14:41:26.323Z,12.37
2018-12-30T14:43:56.890Z,13.80
2018-12-30T14:46:33.792Z,12.03
2018-12-30T14:48:59.202Z,13.60
2018-12-30T14:51:29.581Z,14.03
2018-12-30T14:53:59.971Z,13.23
2018-12-30T14:56:30.207Z,12.87
2018-12-30T14:59:00.728Z,13.47
2018-12-30T15:01:33.821Z,12.83
2018-12-30T15:04:04.245Z,12.13
2018-12-30T15:06:34.286Z,13.07
2018-12-30T15:09:07.043Z,13.17
2018-12-30T15:11:37.223Z,12.93
2018-12-30T15:14:07.428Z,13.00
2018-12-30T15:16:37.755Z,13.10
2018-12-30T15:19:08.095Z,13.30
2018-12-30T15:21:38.470Z,13.40
2018-12-30T15:24:08.627Z,12.97
2018-12-30T15:26:38.781Z,12.70
2018-12-30T15:29:09.310Z,13.27
2018-12-30T15:31:39.818Z,12.33
2018-12-30T15:34:10.727Z,11.47
2018-12-30T15:36:41.021Z,13.47
2018-12-30T15:39:11.484Z,12.23
2018-12-30T15:41:41.608Z,12.00
2018-12-30T15:44:12.239Z,11.80
2018-12-30T15:46:42.407Z,12.00
2018-12-30T15:49:16.421Z,12.93
2018-12-30T15:51:46.004Z,12.37
2018-12-30T15:54:16.300Z,12.10
2018-12-30T15:56:46.473Z,11.90
2018-12-30T15:59:17.035Z,12.77
2018-12-30T16:01:47.447Z,12.80
2018-12-30T16:04:17.353Z,12.50
2018-12-30T16:06:47.800Z,12.20
2018-12-30T16:09:18.543Z,12.30
2018-12-30T16:11:48.693Z,11.73
2018-12-30T16:14:18.889Z,11.27
2018-12-30T16:16:49.394Z,10.93
2018-12-30T16:19:19.580Z,11.77
2018-12-30T16:21:49.670Z,11.03
2018-12-30T16:24:20.343Z,12.23
2018-12-30T16:26:50.539Z,11.63
2018-12-30T16:29:21.054Z,13.50
2018-12-30T16:31:51.323Z,12.67
2018-12-30T16:34:22.106Z,12.03
2018-12-30T16:36:52.333Z,11.23
2018-12-30T16:39:22.785Z,11.40
2018-12-30T16:41:52.892Z,11.37
2018-12-30T16:44:23.488Z,11.60
2018-12-30T16:46:54.033Z,11.43
2018-12-30T16:49:24.675Z,10.93
2018-12-30T16:51:54.920Z,11.37
2018-12-30T16:54:25.249Z,12.03
2018-12-30T16:56:55.774Z,12.40
2018-12-30T16:59:26.593Z,11.50
2018-12-30T17:01:56.779Z,11.70
2018-12-30T17:04:27.139Z,11.90
2018-12-30T17:06:57.996Z,12.43
2018-12-30T17:09:28.279Z,12.27
2018-12-30T17:11:58.546Z,11.90
2018-12-30T17:14:30.514Z,11.60
2018-12-30T17:17:01.457Z,12.50
2018-12-30T17:19:31.582Z,12.87
2018-12-30T17:22:02.168Z,12.07
2018-12-30T17:24:32.275Z,12.87
2018-12-30T17:27:03.329Z,13.03
2018-12-30T17:29:33.778Z,12.20
2018-12-30T17:32:04.080Z,12.00
2018-12-30T17:34:35.564Z,12.90
2018-12-30T17:37:06.089Z,12.97
2018-12-30T17:39:36.204Z,13.17
2018-12-30T17:42:06.283Z,12.63
2018-12-30T17:44:36.407Z,13.10
2018-12-30T17:47:06.526Z,12.10
2018-12-30T17:49:37.063Z,12.30
2018-12-30T17:52:08.248Z,12.93
2018-12-30T17:54:38.422Z,13.57
2018-12-30T17:57:10.326Z,12.47
2018-12-30T17:59:40.530Z,12.37
2018-12-30T18:02:11.061Z,12.37
2018-12-30T18:04:41.413Z,13.53
2018-12-30T18:07:13.255Z,12.93
2018-12-30T18:09:44.054Z,12.90
2018-12-30T18:12:14.538Z,13.57
2018-12-30T18:14:45.237Z,13.20
2018-12-30T18:17:15.795Z,13.73
2018-12-30T18:19:45.270Z,12.93
2018-12-30T18:22:15.832Z,13.00
2018-12-30T18:24:46.004Z,14.60
2018-12-30T18:27:16.596Z,13.90
2018-12-30T18:29:47.464Z,13.17
2018-12-30T18:32:17.599Z,15.90
2018-12-30T18:34:48.484Z,16.57
2018-12-30T18:37:18.656Z,12.70
2018-12-30T18:39:50.186Z,13.20
2018-12-30T18:42:20.332Z,13.23
2018-12-30T18:44:51.219Z,14.80
2018-12-30T18:47:21.491Z,13.13
2018-12-30T18:49:52.154Z,13.63
2018-12-30T18:52:22.439Z,14.13
2018-12-30T18:54:53.029Z,13.67
2018-12-30T18:57:23.263Z,14.17
2018-12-30T18:59:54.127Z,14.27
2018-12-30T19:02:24.398Z,14.07
2018-12-30T19:04:55.179Z,13.43
2018-12-30T19:07:24.777Z,13.00
2018-12-30T19:09:55.387Z,13.50
2018-12-30T19:12:25.795Z,14.87
2018-12-30T19:14:56.047Z,13.20
2018-12-30T19:17:26.339Z,15.00
2018-12-30T19:19:56.657Z,14.50
2018-12-30T19:22:26.992Z,14.83
2018-12-30T19:24:57.408Z,17.17
2018-12-30T19:27:27.679Z,14.97
2018-12-30T19:29:59.510Z,15.13
2018-12-30T19:32:30.002Z,14.10
2018-12-30T19:35:00.571Z,14.80
2018-12-30T19:37:31.191Z,15.87
2018-12-30T19:40:01.883Z,14.80
2018-12-30T19:42:32.155Z,14.50
2018-12-30T19:45:02.782Z,13.67
2018-12-30T19:47:32.939Z,12.30
2018-12-30T19:50:03.629Z,12.77
2018-12-30T19:52:33.887Z,12.73
2018-12-30T19:55:04.092Z,11.37
2018-12-30T19:57:34.229Z,12.27
2018-12-30T20:00:04.024Z,12.63
2018-12-30T20:02:34.467Z,12.30
2018-12-30T20:05:05.063Z,12.50
2018-12-30T20:07:35.510Z,12.30
2018-12-30T20:10:06.091Z,12.47
2018-12-30T20:12:36.327Z,13.57
2018-12-30T20:15:07.731Z,12.47
2018-12-30T20:17:38.194Z,12.43
2018-12-30T20:20:08.463Z,13.60
2018-12-30T20:22:39.049Z,12.87
2018-12-30T20:25:09.110Z,12.13
2018-12-30T20:27:39.148Z,12.63
2018-12-30T20:30:09.687Z,12.33
2018-12-30T20:32:39.896Z,13.17
2018-12-30T20:35:10.803Z,12.67
2018-12-30T20:37:40.879Z,13.83
2018-12-30T20:40:11.031Z,13.73
2018-12-30T20:42:41.063Z,14.07
2018-12-30T20:45:11.540Z,14.23
2018-12-30T20:47:41.871Z,14.17
2018-12-30T20:50:12.002Z,13.80
2018-12-30T20:52:41.446Z,13.30
2018-12-30T20:55:12.347Z,14.57
2018-12-30T20:57:42.558Z,13.77
2018-12-30T21:00:13.287Z,13.53
2018-12-30T21:02:43.343Z,13.30
2018-12-30T21:05:13.838Z,13.30
2018-12-30T21:07:43.980Z,11.97
2018-12-30T21:10:14.627Z,12.47
2018-12-30T21:12:44.963Z,14.37
2018-12-30T21:15:15.019Z,13.00
2018-12-30T21:17:46.027Z,12.10
2018-12-30T21:20:16.487Z,11.50
2018-12-30T21:22:46.642Z,12.17
2018-12-30T21:25:17.359Z,12.07
2018-12-30T21:27:47.802Z,13.40
2018-12-30T21:30:17.960Z,11.70
2018-12-30T21:32:48.311Z,12.13
2018-12-30T21:35:18.944Z,11.27
2018-12-30T21:37:49.059Z,12.10
2018-12-30T21:40:20.062Z,11.80
2018-12-30T21:42:50.543Z,12.13
2018-12-30T21:45:20.565Z,11.87
2018-12-30T21:47:51.598Z,12.67
2018-12-30T21:50:21.770Z,12.90
2018-12-30T21:52:52.044Z,12.37
2018-12-30T21:55:22.469Z,12.30
2018-12-30T21:57:52.892Z,13.00
2018-12-30T22:00:23.158Z,12.90
2018-12-30T22:02:53.755Z,12.77
2018-12-30T22:05:26.201Z,12.83
2018-12-30T22:07:56.434Z,12.13
2018-12-30T22:10:27.023Z,12.63
2018-12-30T22:12:57.381Z,22.60
2018-12-30T22:15:27.634Z,13.70
2018-12-30T22:17:57.822Z,13.60
2018-12-30T22:20:28.771Z,14.30
2018-12-30T22:22:58.858Z,13.70
2018-12-30T22:25:29.746Z,13.90
2018-12-30T22:28:00.019Z,15.30
2018-12-30T22:30:31.243Z,14.60
2018-12-30T22:33:01.874Z,14.67
2018-12-30T22:35:32.063Z,14.03
2018-12-30T22:38:02.250Z,13.93
2018-12-30T22:40:33.190Z,14.33
2018-12-30T22:43:03.786Z,14.33
2018-12-30T22:45:33.805Z,13.73
2018-12-30T22:48:04.581Z,13.97
2018-12-30T22:50:35.119Z,14.27
2018-12-30T22:53:05.149Z,13.43
2018-12-30T22:55:35.256Z,13.87
2018-12-30T22:58:06.848Z,14.83
2018-12-30T23:01:08.671Z,13.90
2018-12-30T23:03:39.215Z,14.50
2018-12-30T23:06:09.454Z,14.30
2018-12-30T23:08:39.819Z,14.43
2018-12-30T23:11:09.954Z,14.27
2018-12-30T23:13:40.455Z,12.77
2018-12-30T23:16:10.622Z,14.27
2018-12-30T23:18:41.246Z,14.07
2018-12-30T23:21:14.754Z,14.80
2018-12-30T23:23:44.987Z,14.13
2018-12-30T23:26:15.570Z,14.70
2018-12-30T23:28:46.153Z,14.47
2018-12-30T23:31:16.299Z,13.03
2018-12-30T23:33:48.229Z,14.80
2018-12-30T23:36:18.657Z,13.63
2018-12-30T23:38:48.784Z,13.40
2018-12-30T23:41:19.206Z,13.37
2018-12-30T23:43:49.794Z,13.33
2018-12-30T23:46:19.830Z,12.90
2018-12-30T23:48:50.527Z,13.53
2018-12-30T23:51:20.958Z,13.10
2018-12-30T23:53:52.350Z,12.90
2018-12-30T23:56:23.138Z,13.20
2018-12-30T23:58:53.506Z,12.27
